createdAt,value
2019-01-02T00:00:02.960Z,99872.66
2019-01-02T00:04:08.907Z,99884.11
2019-01-02T00:08:13.161Z,99958.13
2019-01-02T00:12:19.107Z,99979.75
2019-01-02T00:16:23.390Z,99966.81
2019-01-02T00:20:27.584Z,99958.91
2019-01-02T00:24:31.880Z,99937.11
2019-01-02T00:28:36.136Z,99961.41
2019-01-02T00:32:42.130Z,99948.39
2019-01-02T00:36:46.400Z,99929.35
2019-01-02T00:40:52.387Z,99907.66
2019-01-02T00:44:56.653Z,99926.64
2019-01-02T00:49:00.979Z,99934.08
2019-01-02T00:53:05.254Z,99925.55
2019-01-02T00:57:11.217Z,99917.06
2019-01-02T01:01:15.444Z,99913.39
2019-01-02T01:05:19.690Z,99906.11
2019-01-02T01:09:23.964Z,99913.12
2019-01-02T01:13:28.260Z,99902.38
2019-01-02T01:17:34.209Z,99891.70
2019-01-02T01:21:38.529Z,99881.91
2019-01-02T01:25:44.543Z,99904.60
2019-01-02T01:29:48.840Z,99907.70
2019-01-02T01:33:53.087Z,99908.72
2019-01-02T01:37:59.087Z,99900.05
2019-01-02T01:42:03.335Z,99898.36
2019-01-02T01:46:07.597Z,99890.22
2019-01-02T01:50:12.143Z,99883.77
2019-01-02T01:54:16.418Z,99870.73
2019-01-02T01:58:20.713Z,99865.41
2019-01-02T02:02:26.657Z,99853.80
2019-01-02T02:06:30.929Z,99817.33
2019-01-02T02:10:35.212Z,99824.42
2019-01-02T02:14:41.220Z,99833.98
2019-01-02T02:18:45.761Z,99835.77
2019-01-02T02:22:50.090Z,99851.39
2019-01-02T02:26:56.067Z,99826.27
2019-01-02T02:31:00.705Z,99825.45
2019-01-02T02:35:07.389Z,99841.13
2019-01-02T02:39:11.637Z,99839.83
2019-01-02T02:43:17.625Z,99839.55
2019-01-02T02:47:21.917Z,99826.47
2019-01-02T02:51:27.879Z,99831.83
2019-01-02T02:55:33.889Z,99829.50
2019-01-02T02:59:39.848Z,99817.19
2019-01-02T03:03:45.834Z,99812.31
2019-01-02T03:07:50.265Z,99817.42
2019-01-02T03:11:56.275Z,99808.27
2019-01-02T03:16:00.511Z,99811.25
2019-01-02T03:20:05.377Z,99814.23
2019-01-02T03:24:11.336Z,99811.58
2019-01-02T03:28:15.592Z,99814.08
2019-01-02T03:32:21.562Z,99818.80
2019-01-02T03:36:26.127Z,99812.97
2019-01-02T03:40:30.371Z,99819.03
2019-01-02T03:44:34.655Z,99821.16
2019-01-02T03:48:39.408Z,99816.70
2019-01-02T03:52:43.710Z,99815.78
2019-01-02T03:56:47.967Z,99814.88
2019-01-02T04:00:52.218Z,99830.50
2019-01-02T04:04:56.494Z,99823.59
2019-01-02T04:09:00.785Z,99826.09
2019-01-02T04:13:05.007Z,99833.03
2019-01-02T04:17:09.278Z,99831.20
2019-01-02T04:21:13.564Z,99849.00
2019-01-02T04:25:17.814Z,99852.03
2019-01-02T04:29:22.109Z,99860.45
2019-01-02T04:33:26.330Z,99868.73
2019-01-02T04:41:40.617Z,99871.02
2019-01-02T04:45:52.423Z,99882.89
2019-01-02T04:49:56.636Z,99866.08
2019-01-02T04:54:00.947Z,99887.40
2019-01-02T04:58:05.158Z,99891.78
2019-01-02T05:02:09.442Z,99881.86
2019-01-02T05:06:13.671Z,99895.76
2019-01-02T05:10:18.287Z,99893.73
2019-01-02T05:18:48.407Z,99907.58
2019-01-02T05:22:52.684Z,99901.13
2019-01-02T05:26:56.982Z,99909.37
2019-01-02T05:35:11.603Z,99915.40
2019-01-02T05:39:15.832Z,99924.14
2019-01-02T05:43:20.110Z,99927.13
2019-01-02T05:47:24.358Z,99925.34
2019-01-02T05:51:28.639Z,99934.44
2019-01-02T05:55:32.895Z,99946.28
2019-01-02T05:59:37.123Z,99947.19
2019-01-02T06:03:41.395Z,99949.47
2019-01-02T06:07:45.680Z,99954.69
2019-01-02T06:11:50.003Z,99965.16
2019-01-02T06:15:54.252Z,99960.39
2019-01-02T06:19:58.502Z,99979.06
2019-01-02T06:24:02.752Z,99980.41
2019-01-02T06:28:07.062Z,99983.79
2019-01-02T06:32:11.361Z,99978.53
2019-01-02T06:36:15.615Z,99996.77
2019-01-02T06:40:19.898Z,99999.38
2019-01-02T06:44:24.333Z,99996.38
2019-01-02T06:48:28.561Z,100010.33
2019-01-02T06:52:32.857Z,100019.07
2019-01-02T06:56:37.123Z,100016.25
2019-01-02T07:00:43.092Z,100028.45
2019-01-02T07:04:47.395Z,100026.33
2019-01-02T07:08:51.685Z,100025.95
2019-01-02T07:12:55.911Z,100022.42
2019-01-02T07:17:00.212Z,100030.23
2019-01-02T07:21:04.891Z,100016.36
2019-01-02T07:25:09.354Z,100024.06
2019-01-02T07:29:13.635Z,100020.64
2019-01-02T07:33:18.029Z,100036.33
2019-01-02T07:43:08.715Z,100028.34
2019-01-02T07:47:51.009Z,100036.91
2019-01-02T07:52:33.361Z,100031.41
2019-01-02T07:57:15.675Z,100016.48
2019-01-02T08:01:58.017Z,100007.19
2019-01-02T08:06:40.395Z,100012.08
2019-01-02T08:11:22.717Z,100004.82
2019-01-02T08:16:05.069Z,100008.78
2019-01-02T08:20:47.376Z,100005.36
2019-01-02T08:25:29.703Z,100008.41
2019-01-02T08:30:12.014Z,100011.39
2019-01-02T08:34:54.363Z,100006.13
2019-01-02T08:39:26.546Z,100030.92
2019-01-02T08:44:08.869Z,100040.04
2019-01-02T08:48:51.205Z,100026.96
2019-01-02T08:53:09.219Z,100031.34
2019-01-02T08:57:51.587Z,100030.76
2019-01-02T09:02:33.954Z,100028.58
2019-01-02T09:06:46.927Z,100041.72
2019-01-02T09:11:29.507Z,100031.41
2019-01-02T09:16:12.106Z,100029.84
2019-01-02T09:20:40.190Z,100046.95
2019-01-02T09:25:22.525Z,100064.11
2019-01-02T09:30:04.845Z,100051.48
2019-01-02T09:34:47.154Z,100052.12
2019-01-02T09:39:29.500Z,100054.35
2019-01-02T09:44:10.333Z,100052.41
2019-01-02T09:48:52.727Z,100048.34
2019-01-02T09:53:36.633Z,100033.68
2019-01-02T09:58:19.796Z,100024.23
2019-01-02T10:03:06.476Z,100006.59
2019-01-02T10:12:26.838Z,99993.87
2019-01-02T10:17:09.162Z,99998.41
2019-01-02T10:26:56.662Z,100005.44
2019-01-02T10:31:29.218Z,100022.33
2019-01-02T10:36:11.496Z,100009.80
2019-01-02T10:40:50.676Z,100001.91
2019-01-02T10:45:24.801Z,100010.66
2019-01-02T10:49:47.787Z,100017.82
2019-01-02T10:54:19.126Z,100009.23
2019-01-02T10:58:51.788Z,99993.59
2019-01-02T11:03:38.266Z,100008.03
2019-01-02T11:08:08.007Z,99976.41
2019-01-02T11:12:51.307Z,99987.44
2019-01-02T11:17:22.180Z,100006.59
2019-01-02T11:27:08.892Z,100039.40
2019-01-02T11:31:51.230Z,100009.59
2019-01-02T11:36:33.547Z,100018.57
2019-01-02T11:45:16.182Z,100020.02
2019-01-02T11:49:20.486Z,100046.44
2019-01-02T11:53:24.766Z,100054.56
2019-01-02T11:57:28.990Z,100047.81
2019-01-02T12:01:33.327Z,100034.36
2019-01-02T12:05:37.832Z,100056.41
2019-01-02T12:09:42.136Z,100040.19
2019-01-02T12:13:46.353Z,100053.58
2019-01-02T12:17:50.659Z,100049.25
2019-01-02T12:21:54.908Z,100044.09
2019-01-02T12:25:59.141Z,100035.03
2019-01-02T12:34:18.150Z,100053.99
2019-01-02T12:38:22.414Z,100057.47
2019-01-02T12:42:26.645Z,100065.34
2019-01-02T12:46:30.967Z,100067.61
2019-01-02T12:50:35.560Z,100076.80
2019-01-02T12:54:39.826Z,100093.34
2019-01-02T12:58:44.111Z,100073.83
2019-01-02T13:03:26.465Z,100088.75
2019-01-02T13:08:08.799Z,100087.28
2019-01-02T13:12:34.737Z,100099.06
2019-01-02T13:17:17.054Z,100094.22
2019-01-02T13:21:59.374Z,100095.61
2019-01-02T13:26:41.688Z,100104.98
2019-01-02T13:31:12.448Z,100111.11
2019-01-02T13:35:54.758Z,100116.77
2019-01-02T13:40:37.137Z,100153.83
2019-01-02T13:44:52.467Z,100135.79
2019-01-02T13:49:34.784Z,100140.55
2019-01-02T13:53:39.067Z,100142.67
2019-01-02T13:57:43.347Z,100155.21
2019-01-02T14:01:47.618Z,100162.83
2019-01-02T14:10:34.919Z,100170.41
2019-01-02T14:14:39.160Z,100172.44
2019-01-02T14:18:43.445Z,100188.25
2019-01-02T14:22:47.824Z,100191.77
2019-01-02T14:26:52.077Z,100185.92
2019-01-02T14:30:56.357Z,100191.31
2019-01-02T14:35:00.676Z,100208.59
2019-01-02T14:39:44.311Z,100207.64
2019-01-02T14:43:48.539Z,100217.09
2019-01-02T14:47:52.803Z,100230.03
2019-01-02T14:51:57.058Z,100235.82
2019-01-02T14:56:01.389Z,100243.07
2019-01-02T15:00:44.738Z,100253.24
2019-01-02T15:04:49.007Z,100257.16
2019-01-02T15:08:53.246Z,100271.88
2019-01-02T15:12:57.496Z,100282.73
2019-01-02T15:17:01.767Z,100263.51
2019-01-02T15:21:06.076Z,100270.95
2019-01-02T15:25:10.608Z,100277.81
2019-01-02T15:29:14.857Z,100291.41
2019-01-02T15:33:19.111Z,100297.23
2019-01-02T15:37:23.346Z,100300.70
2019-01-02T15:41:27.600Z,100310.63
2019-01-02T15:45:31.894Z,100320.64
2019-01-02T15:49:36.112Z,100317.27
2019-01-02T15:53:40.503Z,100319.06
2019-01-02T15:57:44.750Z,100322.47
2019-01-02T16:01:49.000Z,100332.77
2019-01-02T16:10:18.137Z,100346.52
2019-01-02T16:14:24.431Z,100354.73
2019-01-02T16:18:28.719Z,100356.84
2019-01-02T16:22:32.966Z,100366.37
2019-01-02T16:26:37.254Z,100371.84
2019-01-02T16:30:41.582Z,100368.97
2019-01-02T16:34:45.833Z,100380.11
2019-01-02T16:38:50.080Z,100389.63
2019-01-02T16:42:54.359Z,100401.75
2019-01-02T16:46:58.670Z,100419.07
2019-01-02T16:51:02.932Z,100434.03
2019-01-02T16:55:07.179Z,100439.05
2019-01-02T16:59:11.443Z,100437.53
2019-01-02T17:03:15.755Z,100440.61
2019-01-02T17:07:20.291Z,100455.10
2019-01-02T17:11:24.871Z,100465.34
2019-01-02T17:15:29.119Z,100470.39
2019-01-02T17:19:33.426Z,100481.28
2019-01-02T17:23:37.642Z,100495.73
2019-01-02T17:27:41.905Z,100495.50
2019-01-02T17:31:46.175Z,100489.13
2019-01-02T17:35:50.419Z,100502.64
2019-01-02T17:39:54.716Z,100500.47
2019-01-02T17:43:58.978Z,100508.65
2019-01-02T17:48:03.184Z,100512.08
2019-01-02T17:52:07.468Z,100517.44
2019-01-02T17:56:11.753Z,100529.43
2019-01-02T18:00:15.950Z,100538.48
2019-01-02T18:04:20.250Z,100552.53
2019-01-02T18:08:24.493Z,100554.97
2019-01-02T18:12:28.777Z,100560.69
2019-01-02T18:16:33.113Z,100557.77
2019-01-02T18:20:37.357Z,100559.29
2019-01-02T18:24:41.667Z,100564.96
2019-01-02T18:28:45.969Z,100566.94
2019-01-02T18:32:50.296Z,100585.70
2019-01-02T18:36:54.540Z,100595.34
2019-01-02T18:40:58.826Z,100606.47
2019-01-02T18:45:03.125Z,100606.31
2019-01-02T18:49:07.372Z,100617.44
2019-01-02T18:53:11.990Z,100623.09
2019-01-02T18:57:16.240Z,100618.07
2019-01-02T19:01:20.502Z,100625.70
2019-01-02T19:05:24.777Z,100633.02
2019-01-02T19:09:29.051Z,100636.91
2019-01-02T19:13:33.323Z,100641.94
2019-01-02T19:17:37.603Z,100645.99
2019-01-02T19:21:42.330Z,100653.78
2019-01-02T19:25:46.535Z,100655.55
2019-01-02T19:29:50.806Z,100670.32
2019-01-02T19:33:55.099Z,100668.52
2019-01-02T19:37:59.370Z,100672.28
2019-01-02T19:42:03.630Z,100710.94
2019-01-02T19:46:07.909Z,100693.11
2019-01-02T19:50:12.118Z,100708.65
2019-01-02T19:54:16.365Z,100720.88
2019-01-02T19:58:20.631Z,100723.77
2019-01-02T20:02:24.986Z,100726.59
2019-01-02T20:06:29.246Z,100731.84
2019-01-02T20:10:33.519Z,100746.66
2019-01-02T20:14:37.773Z,100743.59
2019-01-02T20:18:42.079Z,100735.36
2019-01-02T20:22:46.458Z,100745.73
2019-01-02T20:26:55.359Z,100741.76
2019-01-02T20:30:56.729Z,100760.00
2019-01-02T20:35:00.985Z,100762.91
2019-01-02T20:39:45.614Z,100769.07
2019-01-02T20:43:49.875Z,100767.91
2019-01-02T20:47:54.163Z,100772.03
2019-01-02T20:51:58.498Z,100779.63
2019-01-02T20:56:02.778Z,100780.54
2019-01-02T21:00:09.515Z,100772.26
2019-01-02T21:04:13.798Z,100768.28
2019-01-02T21:08:18.058Z,100769.66
2019-01-02T21:12:22.314Z,100777.67
2019-01-02T21:16:26.520Z,100765.41
2019-01-02T21:20:30.795Z,100756.50
2019-01-02T21:24:35.044Z,100756.70
2019-01-02T21:28:39.266Z,100761.41
2019-01-02T21:32:43.496Z,100761.95
2019-01-02T21:36:47.746Z,100770.42
2019-01-02T21:40:51.976Z,100776.02
2019-01-02T21:44:56.278Z,100785.41
2019-01-02T21:49:00.527Z,100777.86
2019-01-02T21:53:04.756Z,100768.28
2019-01-02T21:57:09.035Z,100769.58
2019-01-02T22:01:13.319Z,100765.50
2019-01-02T22:05:17.620Z,100757.73
2019-01-02T22:09:21.846Z,100758.18
2019-01-02T22:13:26.098Z,100765.61
2019-01-02T22:17:30.434Z,100766.48
2019-01-02T22:21:34.808Z,100763.39
2019-01-02T22:25:39.086Z,100761.12
2019-01-02T22:29:43.356Z,100771.48
2019-01-02T22:33:47.554Z,100757.05
2019-01-02T22:37:51.809Z,100764.44
2019-01-02T22:41:56.086Z,100770.97
2019-01-02T22:46:00.392Z,100780.04
2019-01-02T22:50:05.621Z,100788.09
2019-01-02T22:54:09.852Z,100780.42
2019-01-02T22:58:14.097Z,100783.52
2019-01-02T23:07:02.975Z,100781.08
2019-01-02T23:11:26.166Z,100789.45
2019-01-02T23:15:49.365Z,100792.92
2019-01-02T23:20:12.553Z,100794.95
2019-01-02T23:24:35.802Z,100828.72
2019-01-02T23:28:58.983Z,100828.27
2019-01-02T23:33:22.180Z,100836.93
2019-01-02T23:37:45.381Z,100818.48
2019-01-02T23:42:04.766Z,100822.11
2019-01-02T23:46:28.001Z,100834.75
2019-01-02T23:50:51.465Z,100829.30
2019-01-02T23:55:14.664Z,100836.55
2019-01-02T23:59:39.737Z,100839.13
